createdAt,value
2018-12-21T00:00:38.662Z,4.80
2018-12-21T00:05:34.652Z,4.90
2018-12-21T00:10:30.639Z,4.87
2018-12-21T00:15:26.620Z,4.23
2018-12-21T00:20:22.737Z,3.60
2018-12-21T00:25:18.740Z,3.80
2018-12-21T00:30:16.760Z,3.40
2018-12-21T00:35:18.992Z,3.70
2018-12-21T00:40:21.140Z,3.57
2018-12-21T00:45:19.188Z,3.60
2018-12-21T00:50:15.199Z,4.33
2018-12-21T00:55:11.229Z,3.67
2018-12-21T01:00:11.263Z,4.27
2018-12-21T01:05:07.385Z,4.17
2018-12-21T01:10:03.728Z,3.73
2018-12-21T01:14:59.736Z,4.70
2018-12-21T01:19:56.297Z,3.70
2018-12-21T01:24:52.303Z,4.07
2018-12-21T01:29:48.297Z,4.33
2018-12-21T01:34:44.279Z,4.13
2018-12-21T01:39:40.272Z,3.70
2018-12-21T01:44:36.258Z,4.00
2018-12-21T01:49:32.253Z,3.00
2018-12-21T01:54:28.236Z,3.13
2018-12-21T01:59:24.253Z,3.90
2018-12-21T02:04:20.225Z,3.50
2018-12-21T02:09:16.220Z,4.10
2018-12-21T02:14:12.357Z,3.50
2018-12-21T02:19:08.348Z,4.13
2018-12-21T02:24:04.352Z,3.77
2018-12-21T02:29:00.349Z,3.60
2018-12-21T02:33:56.332Z,4.43
2018-12-21T02:38:52.309Z,3.80
2018-12-21T02:43:48.302Z,3.60
2018-12-21T02:48:44.293Z,3.60
2018-12-21T02:53:40.277Z,4.00
2018-12-21T02:58:36.968Z,2.93
2018-12-21T03:03:32.968Z,3.33
2018-12-21T03:08:28.965Z,3.10
2018-12-21T03:13:24.949Z,3.70
2018-12-21T03:18:20.960Z,2.63
2018-12-21T03:23:16.929Z,2.67
2018-12-21T03:28:13.582Z,2.57
2018-12-21T03:33:09.577Z,2.30
2018-12-21T03:38:05.584Z,2.40
2018-12-21T03:43:01.575Z,2.10
2018-12-21T03:47:57.561Z,2.27
2018-12-21T03:52:53.544Z,2.40
2018-12-21T03:57:51.473Z,2.20
2018-12-21T04:02:47.516Z,2.77
2018-12-21T04:07:43.508Z,2.30
2018-12-21T04:12:39.501Z,1.90
2018-12-21T04:17:35.508Z,1.93
2018-12-21T04:22:34.129Z,2.33
2018-12-21T04:27:36.381Z,2.57
2018-12-21T04:32:32.431Z,2.20
2018-12-21T04:37:28.426Z,2.03
2018-12-21T04:42:24.432Z,2.10
2018-12-21T04:47:20.417Z,2.17
2018-12-21T04:52:16.400Z,1.90
2018-12-21T04:57:12.389Z,2.33
2018-12-21T05:02:08.387Z,2.13
2018-12-21T05:07:12.115Z,2.50
2018-12-21T05:12:02.398Z,1.57
2018-12-21T05:16:58.378Z,1.70
2018-12-21T05:21:54.371Z,1.60
2018-12-21T05:26:50.365Z,1.90
2018-12-21T05:31:46.360Z,1.60
2018-12-21T05:36:42.362Z,1.70
2018-12-21T05:41:39.425Z,2.00
2018-12-21T05:46:35.424Z,2.03
2018-12-21T05:51:31.410Z,1.50
2018-12-21T05:56:27.412Z,1.30
2018-12-21T06:01:23.384Z,1.60
2018-12-21T06:06:19.389Z,1.80
2018-12-21T06:11:15.379Z,2.10
2018-12-21T06:16:12.162Z,1.87
2018-12-21T06:21:10.464Z,1.63
2018-12-21T06:26:09.542Z,2.03
2018-12-21T06:31:10.764Z,1.93
2018-12-21T06:36:10.580Z,2.00
2018-12-21T06:41:07.901Z,3.00
2018-12-21T06:46:13.987Z,1.93
2018-12-21T06:51:07.585Z,1.87
2018-12-21T06:56:05.078Z,2.50
2018-12-21T07:01:02.659Z,2.10
2018-12-21T07:05:59.618Z,1.60
2018-12-21T07:10:55.659Z,1.93
2018-12-21T07:15:51.671Z,2.00
2018-12-21T07:20:47.687Z,2.23
2018-12-21T07:25:43.743Z,2.10
2018-12-21T07:30:39.817Z,1.80
2018-12-21T07:35:35.856Z,1.40
2018-12-21T07:40:31.944Z,1.17
2018-12-21T07:45:27.975Z,1.20
2018-12-21T07:50:24.050Z,1.10
2018-12-21T07:55:20.134Z,0.83
2018-12-21T08:00:16.277Z,0.70
2018-12-21T08:05:12.768Z,0.83
2018-12-21T08:10:11.317Z,0.93
2018-12-21T08:15:08.647Z,0.90
2018-12-21T08:20:05.829Z,1.00
2018-12-21T08:25:01.938Z,1.70
2018-12-21T08:29:58.005Z,0.63
2018-12-21T08:34:54.028Z,0.93
2018-12-21T08:39:50.073Z,0.70
2018-12-21T08:44:46.098Z,0.70
2018-12-21T08:49:42.148Z,1.20
2018-12-21T08:54:38.231Z,0.50
2018-12-21T08:59:34.334Z,0.73
2018-12-21T09:04:32.274Z,0.90
2018-12-21T09:09:28.525Z,0.60
2018-12-21T09:14:24.643Z,1.23
2018-12-21T09:19:20.713Z,1.00
2018-12-21T09:24:18.074Z,0.60
2018-12-21T09:29:15.489Z,0.83
2018-12-21T09:34:13.036Z,0.93
2018-12-21T09:44:23.665Z,0.90
2018-12-21T09:49:22.186Z,0.70
2018-12-21T09:54:20.245Z,0.70
2018-12-21T09:59:28.180Z,1.10
2018-12-21T10:04:34.240Z,1.37
2018-12-21T10:09:32.309Z,1.00
2018-12-21T10:14:35.234Z,0.97
2018-12-21T10:19:37.067Z,1.07
2018-12-21T10:24:40.617Z,0.87
2018-12-21T10:29:42.403Z,1.00
2018-12-21T10:34:41.384Z,1.20
2018-12-21T10:39:43.164Z,1.20
2018-12-21T10:50:08.650Z,0.87
2018-12-21T10:55:08.213Z,1.10
2018-12-21T11:00:10.323Z,1.00
2018-12-21T11:05:08.923Z,1.10
2018-12-21T11:10:10.370Z,1.10
2018-12-21T11:15:09.741Z,1.07
2018-12-21T11:25:20.716Z,0.97
2018-12-21T11:30:20.157Z,1.10
2018-12-21T11:35:20.048Z,1.10
2018-12-21T11:40:19.899Z,1.10
2018-12-21T11:45:18.770Z,1.23
2018-12-21T11:50:15.552Z,1.50
2018-12-21T11:55:13.383Z,1.60
2018-12-21T12:00:10.966Z,1.10
2018-12-21T12:05:08.067Z,0.90
2018-12-21T12:10:07.392Z,1.07
2018-12-21T12:15:06.201Z,0.83
2018-12-21T12:20:05.552Z,0.97
2018-12-21T12:25:04.791Z,1.43
2018-12-21T12:30:07.157Z,1.43
2018-12-21T12:35:06.328Z,1.57
2018-12-21T12:40:03.793Z,1.43
2018-12-21T12:45:03.019Z,1.30
2018-12-21T12:50:00.040Z,1.40
2018-12-21T12:55:02.832Z,1.40
2018-12-21T12:59:56.591Z,2.77
2018-12-21T13:04:52.693Z,1.63
2018-12-21T13:09:50.088Z,2.37
2018-12-21T13:14:47.768Z,1.93
2018-12-21T13:19:45.254Z,3.70
2018-12-21T13:24:42.235Z,3.20
2018-12-21T13:29:40.783Z,2.97
2018-12-21T13:34:39.274Z,2.93
2018-12-21T13:39:39.326Z,3.60
2018-12-21T13:44:37.339Z,4.50
2018-12-21T13:49:34.263Z,4.17
2018-12-21T13:54:31.363Z,4.70
2018-12-21T13:59:28.584Z,3.73
2018-12-21T14:04:25.436Z,6.77
2018-12-21T14:09:23.602Z,2.80
2018-12-21T14:14:24.102Z,6.03
2018-12-21T14:19:24.557Z,7.53
2018-12-21T14:24:25.694Z,4.10
2018-12-21T14:29:24.924Z,6.30
2018-12-21T14:34:21.781Z,2.93
2018-12-21T14:39:20.272Z,4.47
2018-12-21T14:44:18.101Z,5.43
2018-12-21T14:49:16.958Z,3.47
2018-12-21T14:54:17.877Z,2.50
2018-12-21T14:59:16.620Z,2.90
2018-12-21T15:04:15.400Z,2.97
2018-12-21T15:09:13.349Z,2.03
2018-12-21T15:14:15.076Z,2.27
2018-12-21T15:19:18.447Z,2.50
2018-12-21T15:24:21.685Z,2.27
2018-12-21T15:29:19.739Z,2.17
2018-12-21T15:34:17.491Z,2.20
2018-12-21T15:39:20.598Z,1.87
2018-12-21T15:44:18.988Z,2.40
2018-12-21T15:49:18.830Z,2.10
2018-12-21T15:54:17.104Z,2.50
2018-12-21T15:59:21.409Z,2.77
2018-12-21T16:04:20.339Z,1.93
2018-12-21T16:09:24.075Z,1.80
2018-12-21T16:14:22.647Z,2.20
2018-12-21T16:19:19.687Z,2.03
2018-12-21T16:24:18.201Z,1.20
2018-12-21T16:29:17.350Z,1.83
2018-12-21T16:34:15.768Z,3.30
2018-12-21T16:39:12.690Z,3.13
2018-12-21T16:44:10.184Z,2.53
2018-12-21T16:49:10.245Z,2.90
2018-12-21T16:54:10.614Z,2.97
2018-12-21T16:59:08.070Z,2.67
2018-12-21T17:04:04.845Z,2.67
2018-12-21T17:09:02.386Z,2.63
2018-12-21T17:14:01.980Z,1.87
2018-12-21T17:19:00.953Z,2.10
2018-12-21T17:23:58.008Z,1.70
2018-12-21T17:28:55.096Z,1.97
2018-12-21T17:33:52.660Z,2.90
2018-12-21T17:38:53.653Z,1.53
2018-12-21T17:43:52.429Z,3.87
2018-12-21T17:48:51.160Z,2.50
2018-12-21T17:53:50.381Z,3.27
2018-12-21T17:58:52.486Z,4.37
2018-12-21T18:03:51.759Z,3.47
2018-12-21T18:08:48.622Z,3.10
2018-12-21T18:13:51.433Z,5.50
2018-12-21T18:18:49.244Z,4.07
2018-12-21T18:23:47.099Z,3.73
2018-12-21T18:28:45.499Z,3.10
2018-12-21T18:33:43.635Z,2.83
2018-12-21T18:38:42.148Z,3.53
2018-12-21T18:43:40.882Z,3.67
2018-12-21T18:48:38.491Z,6.10
2018-12-21T18:53:37.301Z,3.47
2018-12-21T18:58:35.673Z,3.27
2018-12-21T19:03:33.216Z,4.00
2018-12-21T19:08:30.394Z,3.80
2018-12-21T19:13:27.206Z,5.90
2018-12-21T19:18:24.118Z,3.27
2018-12-21T19:23:20.959Z,2.90
2018-12-21T19:28:20.868Z,4.13
2018-12-21T19:33:17.727Z,5.33
2018-12-21T19:38:14.579Z,2.90
2018-12-21T19:43:11.489Z,5.40
2018-12-21T19:48:08.368Z,3.00
2018-12-21T19:53:04.928Z,4.43
2018-12-21T19:58:04.327Z,4.93
2018-12-21T20:03:01.017Z,3.83
2018-12-21T20:07:58.574Z,5.97
2018-12-21T20:12:55.852Z,4.50
2018-12-21T20:17:51.903Z,5.33
2018-12-21T20:22:47.895Z,4.93
2018-12-21T20:27:47.953Z,5.00
2018-12-21T20:32:44.197Z,5.10
2018-12-21T20:37:40.760Z,3.73
2018-12-21T20:42:37.120Z,3.60
2018-12-21T20:47:33.226Z,4.43
2018-12-21T20:52:29.293Z,5.23
2018-12-21T20:57:25.296Z,3.93
2018-12-21T21:02:21.292Z,4.23
2018-12-21T21:07:17.288Z,4.30
2018-12-21T21:12:13.281Z,4.43
2018-12-21T21:17:09.273Z,5.40
2018-12-21T21:22:05.273Z,4.50
2018-12-21T21:27:01.302Z,5.93
2018-12-21T21:31:57.320Z,8.27
2018-12-21T21:36:53.409Z,5.70
2018-12-21T21:41:49.531Z,6.90
2018-12-21T21:46:52.493Z,8.00
2018-12-21T21:51:48.477Z,5.67
2018-12-21T21:56:44.484Z,5.30
2018-12-21T22:01:41.835Z,5.47
2018-12-21T22:06:45.005Z,3.80
2018-12-21T22:11:41.066Z,3.33
2018-12-21T22:16:37.158Z,3.30
2018-12-21T22:21:33.145Z,3.33
2018-12-21T22:26:29.136Z,3.60
2018-12-21T22:31:25.149Z,2.20
2018-12-21T22:36:21.128Z,2.10
2018-12-21T22:41:17.255Z,4.03
2018-12-21T22:46:13.277Z,4.27
2018-12-21T22:51:09.240Z,3.40
2018-12-21T22:56:05.265Z,5.20
2018-12-21T23:01:01.394Z,4.50
2018-12-21T23:05:57.449Z,3.60
2018-12-21T23:10:53.441Z,4.50
2018-12-21T23:15:49.513Z,4.70
2018-12-21T23:20:45.510Z,3.63
2018-12-21T23:25:41.509Z,5.90
2018-12-21T23:30:37.502Z,6.27
2018-12-21T23:35:33.493Z,5.77
2018-12-21T23:40:29.477Z,3.10
2018-12-21T23:45:25.533Z,4.50
2018-12-21T23:50:21.544Z,6.07
2018-12-21T23:55:17.552Z,2.83
